sensor_id;sensor_type;location;lat;lon;timestamp;temperature;humidity
3348;DHT22;1687;49.540;8.574;2022-12-29T00:02:21;11.40;80.40
3348;DHT22;1687;49.540;8.574;2022-12-29T00:04:46;11.40;80.30
3348;DHT22;1687;49.540;8.574;2022-12-29T00:07:15;11.50;80.60
3348;DHT22;1687;49.540;8.574;2022-12-29T00:09:40;11.50;80.40
3348;DHT22;1687;49.540;8.574;2022-12-29T00:12:06;11.50;80.40
3348;DHT22;1687;49.540;8.574;2022-12-29T00:14:32;11.50;80.60
3348;DHT22;1687;49.540;8.574;2022-12-29T00:17:16;11.60;80.80
3348;DHT22;1687;49.540;8.574;2022-12-29T00:19:42;11.60;80.70
3348;DHT22;1687;49.540;8.574;2022-12-29T00:22:26;11.70;80.70
3348;DHT22;1687;49.540;8.574;2022-12-29T00:25:12;11.70;80.80
3348;DHT22;1687;49.540;8.574;2022-12-29T00:28:07;11.80;81.00
3348;DHT22;1687;49.540;8.574;2022-12-29T00:30:52;11.90;81.10
3348;DHT22;1687;49.540;8.574;2022-12-29T00:33:36;11.90;80.90
3348;DHT22;1687;49.540;8.574;2022-12-29T00:38:57;12.10;82.20
3348;DHT22;1687;49.540;8.574;2022-12-29T00:42:09;12.20;81.50
3348;DHT22;1687;49.540;8.574;2022-12-29T00:45:04;12.30;81.70
3348;DHT22;1687;49.540;8.574;2022-12-29T00:47:30;12.40;81.80
3348;DHT22;1687;49.540;8.574;2022-12-29T00:49:56;12.50;82.00
3348;DHT22;1687;49.540;8.574;2022-12-29T00:52:21;12.60;82.10
3348;DHT22;1687;49.540;8.574;2022-12-29T00:54:47;12.60;82.20
3348;DHT22;1687;49.540;8.574;2022-12-29T00:57:13;12.70;82.30
3348;DHT22;1687;49.540;8.574;2022-12-29T00:59:40;12.70;82.30
3348;DHT22;1687;49.540;8.574;2022-12-29T01:02:07;12.80;82.20
3348;DHT22;1687;49.540;8.574;2022-12-29T01:04:33;12.80;82.30
3348;DHT22;1687;49.540;8.574;2022-12-29T01:06:59;12.80;82.20
3348;DHT22;1687;49.540;8.574;2022-12-29T01:09:25;12.80;82.00
3348;DHT22;1687;49.540;8.574;2022-12-29T01:12:09;12.60;81.30
3348;DHT22;1687;49.540;8.574;2022-12-29T01:14:35;12.50;81.50
3348;DHT22;1687;49.540;8.574;2022-12-29T01:17:01;12.40;81.50
3348;DHT22;1687;49.540;8.574;2022-12-29T01:19:27;12.30;81.40
3348;DHT22;1687;49.540;8.574;2022-12-29T01:21:53;12.30;81.50
3348;DHT22;1687;49.540;8.574;2022-12-29T01:24:19;12.30;81.50
3348;DHT22;1687;49.540;8.574;2022-12-29T01:26:46;12.20;81.30
3348;DHT22;1687;49.540;8.574;2022-12-29T01:29:11;12.20;81.40
3348;DHT22;1687;49.540;8.574;2022-12-29T01:31:37;12.20;81.40
3348;DHT22;1687;49.540;8.574;2022-12-29T01:34:04;12.20;81.60
3348;DHT22;1687;49.540;8.574;2022-12-29T01:36:30;12.30;81.90
3348;DHT22;1687;49.540;8.574;2022-12-29T01:38:56;12.40;81.90
3348;DHT22;1687;49.540;8.574;2022-12-29T01:41:22;12.40;81.80
3348;DHT22;1687;49.540;8.574;2022-12-29T01:43:53;12.50;82.00
3348;DHT22;1687;49.540;8.574;2022-12-29T01:46:28;12.50;82.10
3348;DHT22;1687;49.540;8.574;2022-12-29T01:51:42;12.70;82.30
3348;DHT22;1687;49.540;8.574;2022-12-29T01:54:18;12.70;82.30
3348;DHT22;1687;49.540;8.574;2022-12-29T01:56:47;12.80;82.50
3348;DHT22;1687;49.540;8.574;2022-12-29T01:59:17;12.80;82.40
3348;DHT22;1687;49.540;8.574;2022-12-29T02:01:44;12.80;82.50
3348;DHT22;1687;49.540;8.574;2022-12-29T02:04:11;12.80;82.60
3348;DHT22;1687;49.540;8.574;2022-12-29T02:06:45;12.80;82.80
3348;DHT22;1687;49.540;8.574;2022-12-29T02:09:15;12.80;82.90
3348;DHT22;1687;49.540;8.574;2022-12-29T02:11:40;12.80;82.90
3348;DHT22;1687;49.540;8.574;2022-12-29T02:14:10;12.90;83.20
3348;DHT22;1687;49.540;8.574;2022-12-29T02:36:26;13.00;84.00
3348;DHT22;1687;49.540;8.574;2022-12-29T02:39:07;12.90;84.00
3348;DHT22;1687;49.540;8.574;2022-12-29T02:44:55;13.00;84.40
3348;DHT22;1687;49.540;8.574;2022-12-29T02:47:37;13.00;84.40
3348;DHT22;1687;49.540;8.574;2022-12-29T02:50:33;13.00;84.50
3348;DHT22;1687;49.540;8.574;2022-12-29T02:53:06;13.00;84.60
3348;DHT22;1687;49.540;8.574;2022-12-29T02:55:34;13.00;84.60
3348;DHT22;1687;49.540;8.574;2022-12-29T03:00:38;12.90;84.60
3348;DHT22;1687;49.540;8.574;2022-12-29T03:08:49;13.00;84.90
3348;DHT22;1687;49.540;8.574;2022-12-29T03:11:25;12.90;84.80
3348;DHT22;1687;49.540;8.574;2022-12-29T03:14:28;12.90;85.00
3348;DHT22;1687;49.540;8.574;2022-12-29T03:17:28;12.90;85.10
3348;DHT22;1687;49.540;8.574;2022-12-29T03:20:07;12.90;85.30
3348;DHT22;1687;49.540;8.574;2022-12-29T03:22:39;12.90;85.10
3348;DHT22;1687;49.540;8.574;2022-12-29T03:25:10;12.80;85.10
3348;DHT22;1687;49.540;8.574;2022-12-29T03:27:54;12.80;85.40
3348;DHT22;1687;49.540;8.574;2022-12-29T03:30:21;12.80;85.50
3348;DHT22;1687;49.540;8.574;2022-12-29T03:33:03;12.80;85.70
3348;DHT22;1687;49.540;8.574;2022-12-29T03:35:33;12.80;85.70
3348;DHT22;1687;49.540;8.574;2022-12-29T03:38:11;12.80;85.70
3348;DHT22;1687;49.540;8.574;2022-12-29T03:40:44;12.80;85.70
3348;DHT22;1687;49.540;8.574;2022-12-29T03:43:12;12.80;85.90
3348;DHT22;1687;49.540;8.574;2022-12-29T03:45:38;12.80;85.90
3348;DHT22;1687;49.540;8.574;2022-12-29T03:48:04;12.80;86.00
3348;DHT22;1687;49.540;8.574;2022-12-29T03:50:30;12.90;86.10
3348;DHT22;1687;49.540;8.574;2022-12-29T03:52:56;12.80;86.00
3348;DHT22;1687;49.540;8.574;2022-12-29T03:55:21;12.90;86.40
3348;DHT22;1687;49.540;8.574;2022-12-29T03:57:47;12.90;86.30
3348;DHT22;1687;49.540;8.574;2022-12-29T04:00:13;13.00;86.20
3348;DHT22;1687;49.540;8.574;2022-12-29T04:02:39;13.00;86.50
3348;DHT22;1687;49.540;8.574;2022-12-29T04:05:05;13.00;86.30
3348;DHT22;1687;49.540;8.574;2022-12-29T04:07:31;13.00;86.20
3348;DHT22;1687;49.540;8.574;2022-12-29T04:09:57;13.00;86.30
3348;DHT22;1687;49.540;8.574;2022-12-29T04:12:22;13.00;86.40
3348;DHT22;1687;49.540;8.574;2022-12-29T04:14:48;13.00;86.10
3348;DHT22;1687;49.540;8.574;2022-12-29T04:17:14;13.00;85.90
3348;DHT22;1687;49.540;8.574;2022-12-29T04:19:39;13.00;86.10
3348;DHT22;1687;49.540;8.574;2022-12-29T04:22:05;12.90;85.90
3348;DHT22;1687;49.540;8.574;2022-12-29T04:24:31;12.90;86.00
3348;DHT22;1687;49.540;8.574;2022-12-29T04:26:56;12.90;85.90
3348;DHT22;1687;49.540;8.574;2022-12-29T04:29:22;12.90;86.30
3348;DHT22;1687;49.540;8.574;2022-12-29T04:31:47;12.90;86.20
3348;DHT22;1687;49.540;8.574;2022-12-29T04:34:13;12.90;86.30
3348;DHT22;1687;49.540;8.574;2022-12-29T04:36:39;13.00;86.30
3348;DHT22;1687;49.540;8.574;2022-12-29T04:39:05;13.00;86.40
3348;DHT22;1687;49.540;8.574;2022-12-29T04:41:31;13.00;86.20
3348;DHT22;1687;49.540;8.574;2022-12-29T04:43:57;13.00;86.20
3348;DHT22;1687;49.540;8.574;2022-12-29T04:46:23;13.00;86.00
3348;DHT22;1687;49.540;8.574;2022-12-29T04:48:49;12.90;86.00
3348;DHT22;1687;49.540;8.574;2022-12-29T04:51:14;13.00;86.30
3348;DHT22;1687;49.540;8.574;2022-12-29T04:53:40;13.00;86.20
3348;DHT22;1687;49.540;8.574;2022-12-29T04:56:06;13.00;86.00
3348;DHT22;1687;49.540;8.574;2022-12-29T04:58:32;13.00;85.90
3348;DHT22;1687;49.540;8.574;2022-12-29T05:00:57;13.00;86.20
3348;DHT22;1687;49.540;8.574;2022-12-29T05:03:23;13.00;85.80
3348;DHT22;1687;49.540;8.574;2022-12-29T05:05:49;13.00;85.90
3348;DHT22;1687;49.540;8.574;2022-12-29T05:08:14;13.00;86.00
3348;DHT22;1687;49.540;8.574;2022-12-29T05:10:44;13.00;86.00
3348;DHT22;1687;49.540;8.574;2022-12-29T05:13:10;13.00;85.60
3348;DHT22;1687;49.540;8.574;2022-12-29T05:15:36;13.00;85.90
3348;DHT22;1687;49.540;8.574;2022-12-29T05:18:02;13.00;85.90
3348;DHT22;1687;49.540;8.574;2022-12-29T05:20:27;13.00;85.90
3348;DHT22;1687;49.540;8.574;2022-12-29T05:22:53;13.00;85.60
3348;DHT22;1687;49.540;8.574;2022-12-29T05:25:19;13.00;85.80
3348;DHT22;1687;49.540;8.574;2022-12-29T05:27:44;13.00;85.70
3348;DHT22;1687;49.540;8.574;2022-12-29T05:30:10;13.00;86.20
3348;DHT22;1687;49.540;8.574;2022-12-29T05:32:36;13.10;85.80
3348;DHT22;1687;49.540;8.574;2022-12-29T05:35:02;13.10;85.70
3348;DHT22;1687;49.540;8.574;2022-12-29T05:37:28;13.10;85.70
3348;DHT22;1687;49.540;8.574;2022-12-29T05:39:54;13.10;85.50
3348;DHT22;1687;49.540;8.574;2022-12-29T05:42:19;13.10;85.40
3348;DHT22;1687;49.540;8.574;2022-12-29T05:44:45;13.10;85.40
3348;DHT22;1687;49.540;8.574;2022-12-29T05:47:11;13.00;85.10
3348;DHT22;1687;49.540;8.574;2022-12-29T05:49:36;13.00;85.10
3348;DHT22;1687;49.540;8.574;2022-12-29T05:52:02;13.00;85.20
3348;DHT22;1687;49.540;8.574;2022-12-29T05:54:28;13.00;85.30
3348;DHT22;1687;49.540;8.574;2022-12-29T05:56:53;13.10;85.30
3348;DHT22;1687;49.540;8.574;2022-12-29T05:59:19;13.10;85.00
3348;DHT22;1687;49.540;8.574;2022-12-29T06:01:45;13.10;85.00
3348;DHT22;1687;49.540;8.574;2022-12-29T06:04:10;13.10;85.10
3348;DHT22;1687;49.540;8.574;2022-12-29T06:06:36;13.10;85.10
3348;DHT22;1687;49.540;8.574;2022-12-29T06:09:02;13.10;85.00
3348;DHT22;1687;49.540;8.574;2022-12-29T06:11:28;13.10;85.00
3348;DHT22;1687;49.540;8.574;2022-12-29T06:13:53;13.10;85.10
3348;DHT22;1687;49.540;8.574;2022-12-29T06:16:19;13.10;85.00
3348;DHT22;1687;49.540;8.574;2022-12-29T06:18:45;13.10;84.90
3348;DHT22;1687;49.540;8.574;2022-12-29T06:21:11;13.10;85.10
3348;DHT22;1687;49.540;8.574;2022-12-29T06:23:36;13.10;84.90
3348;DHT22;1687;49.540;8.574;2022-12-29T06:26:02;13.10;85.00
3348;DHT22;1687;49.540;8.574;2022-12-29T06:28:28;13.10;84.70
3348;DHT22;1687;49.540;8.574;2022-12-29T06:30:53;13.10;84.60
3348;DHT22;1687;49.540;8.574;2022-12-29T06:33:19;13.10;84.90
3348;DHT22;1687;49.540;8.574;2022-12-29T06:35:46;13.10;84.70
3348;DHT22;1687;49.540;8.574;2022-12-29T06:38:12;13.00;84.50
3348;DHT22;1687;49.540;8.574;2022-12-29T06:40:38;13.10;84.90
3348;DHT22;1687;49.540;8.574;2022-12-29T06:43:04;13.10;84.60
3348;DHT22;1687;49.540;8.574;2022-12-29T06:45:29;13.00;84.50
3348;DHT22;1687;49.540;8.574;2022-12-29T06:47:55;13.00;84.80
3348;DHT22;1687;49.540;8.574;2022-12-29T06:50:21;13.00;84.50
3348;DHT22;1687;49.540;8.574;2022-12-29T06:52:46;13.00;84.70
3348;DHT22;1687;49.540;8.574;2022-12-29T06:55:12;13.10;84.90
3348;DHT22;1687;49.540;8.574;2022-12-29T06:57:38;13.10;84.70
3348;DHT22;1687;49.540;8.574;2022-12-29T07:00:04;13.10;84.60
3348;DHT22;1687;49.540;8.574;2022-12-29T07:02:30;13.10;84.50
3348;DHT22;1687;49.540;8.574;2022-12-29T07:04:56;13.10;84.50
3348;DHT22;1687;49.540;8.574;2022-12-29T07:07:22;13.10;84.50
3348;DHT22;1687;49.540;8.574;2022-12-29T07:09:47;13.10;84.40
3348;DHT22;1687;49.540;8.574;2022-12-29T07:12:13;13.10;84.40
3348;DHT22;1687;49.540;8.574;2022-12-29T07:14:39;13.00;84.30
3348;DHT22;1687;49.540;8.574;2022-12-29T07:17:05;13.00;84.40
3348;DHT22;1687;49.540;8.574;2022-12-29T07:19:32;13.00;84.30
3348;DHT22;1687;49.540;8.574;2022-12-29T07:21:58;13.00;84.80
3348;DHT22;1687;49.540;8.574;2022-12-29T07:24:24;13.00;84.30
3348;DHT22;1687;49.540;8.574;2022-12-29T07:26:51;13.00;84.10
3348;DHT22;1687;49.540;8.574;2022-12-29T07:29:17;13.00;84.10
3348;DHT22;1687;49.540;8.574;2022-12-29T07:31:43;13.00;84.00
3348;DHT22;1687;49.540;8.574;2022-12-29T07:34:09;12.90;83.90
3348;DHT22;1687;49.540;8.574;2022-12-29T07:36:35;12.90;84.00
3348;DHT22;1687;49.540;8.574;2022-12-29T07:39:01;13.00;84.10
3348;DHT22;1687;49.540;8.574;2022-12-29T07:41:27;13.00;84.00
3348;DHT22;1687;49.540;8.574;2022-12-29T07:43:53;13.10;83.80
3348;DHT22;1687;49.540;8.574;2022-12-29T07:46:19;13.00;83.80
3348;DHT22;1687;49.540;8.574;2022-12-29T07:48:44;13.00;84.40
3348;DHT22;1687;49.540;8.574;2022-12-29T07:51:10;13.00;83.70
3348;DHT22;1687;49.540;8.574;2022-12-29T07:53:36;13.10;83.60
3348;DHT22;1687;49.540;8.574;2022-12-29T07:56:02;13.10;83.60
3348;DHT22;1687;49.540;8.574;2022-12-29T07:58:28;13.00;83.50
3348;DHT22;1687;49.540;8.574;2022-12-29T08:00:58;13.10;83.70
3348;DHT22;1687;49.540;8.574;2022-12-29T08:03:23;13.10;83.60
3348;DHT22;1687;49.540;8.574;2022-12-29T08:05:51;13.20;83.50
3348;DHT22;1687;49.540;8.574;2022-12-29T08:08:16;13.20;83.60
3348;DHT22;1687;49.540;8.574;2022-12-29T08:10:42;13.20;83.30
3348;DHT22;1687;49.540;8.574;2022-12-29T08:13:08;13.30;83.40
3348;DHT22;1687;49.540;8.574;2022-12-29T08:15:33;13.30;83.30
3348;DHT22;1687;49.540;8.574;2022-12-29T08:17:59;13.30;83.30
3348;DHT22;1687;49.540;8.574;2022-12-29T08:20:25;13.40;83.30
3348;DHT22;1687;49.540;8.574;2022-12-29T08:22:51;13.40;83.20
3348;DHT22;1687;49.540;8.574;2022-12-29T08:25:16;13.40;83.10
3348;DHT22;1687;49.540;8.574;2022-12-29T08:27:42;13.40;82.90
3348;DHT22;1687;49.540;8.574;2022-12-29T08:30:09;13.50;83.10
3348;DHT22;1687;49.540;8.574;2022-12-29T08:32:35;13.60;83.00
3348;DHT22;1687;49.540;8.574;2022-12-29T08:35:00;13.60;82.80
3348;DHT22;1687;49.540;8.574;2022-12-29T08:37:26;13.60;82.60
3348;DHT22;1687;49.540;8.574;2022-12-29T08:39:52;13.70;82.70
3348;DHT22;1687;49.540;8.574;2022-12-29T08:42:17;13.60;82.30
3348;DHT22;1687;49.540;8.574;2022-12-29T08:44:43;13.60;82.30
3348;DHT22;1687;49.540;8.574;2022-12-29T08:47:10;13.70;82.50
3348;DHT22;1687;49.540;8.574;2022-12-29T08:49:36;13.70;82.30
3348;DHT22;1687;49.540;8.574;2022-12-29T08:52:03;13.70;82.10
3348;DHT22;1687;49.540;8.574;2022-12-29T08:54:29;13.70;82.10
3348;DHT22;1687;49.540;8.574;2022-12-29T08:56:54;13.80;82.30
3348;DHT22;1687;49.540;8.574;2022-12-29T08:59:20;13.80;82.20
3348;DHT22;1687;49.540;8.574;2022-12-29T09:01:46;13.90;82.00
3348;DHT22;1687;49.540;8.574;2022-12-29T09:04:11;13.80;81.80
3348;DHT22;1687;49.540;8.574;2022-12-29T09:06:37;13.80;81.80
3348;DHT22;1687;49.540;8.574;2022-12-29T09:09:03;13.90;81.80
3348;DHT22;1687;49.540;8.574;2022-12-29T09:11:28;13.80;81.70
3348;DHT22;1687;49.540;8.574;2022-12-29T09:13:54;13.90;81.90
3348;DHT22;1687;49.540;8.574;2022-12-29T09:16:22;13.90;81.50
3348;DHT22;1687;49.540;8.574;2022-12-29T09:18:49;13.90;81.50
3348;DHT22;1687;49.540;8.574;2022-12-29T09:21:14;13.90;81.40
3348;DHT22;1687;49.540;8.574;2022-12-29T09:23:42;13.90;81.20
3348;DHT22;1687;49.540;8.574;2022-12-29T09:26:08;13.90;81.20
3348;DHT22;1687;49.540;8.574;2022-12-29T09:28:34;13.90;81.20
3348;DHT22;1687;49.540;8.574;2022-12-29T09:31:00;13.90;81.20
3348;DHT22;1687;49.540;8.574;2022-12-29T09:33:26;13.90;81.00
3348;DHT22;1687;49.540;8.574;2022-12-29T09:35:57;13.90;81.00
3348;DHT22;1687;49.540;8.574;2022-12-29T09:38:24;13.90;80.90
3348;DHT22;1687;49.540;8.574;2022-12-29T09:40:56;13.90;80.80
3348;DHT22;1687;49.540;8.574;2022-12-29T09:43:43;14.00;80.90
3348;DHT22;1687;49.540;8.574;2022-12-29T09:46:24;14.00;80.70
3348;DHT22;1687;49.540;8.574;2022-12-29T09:49:08;14.10;80.90
3348;DHT22;1687;49.540;8.574;2022-12-29T09:51:50;14.00;80.60
3348;DHT22;1687;49.540;8.574;2022-12-29T09:54:41;14.10;80.70
3348;DHT22;1687;49.540;8.574;2022-12-29T09:57:26;14.10;80.70
3348;DHT22;1687;49.540;8.574;2022-12-29T10:00:08;14.10;80.70
3348;DHT22;1687;49.540;8.574;2022-12-29T10:02:45;14.10;80.70
3348;DHT22;1687;49.540;8.574;2022-12-29T10:05:29;14.10;80.70
3348;DHT22;1687;49.540;8.574;2022-12-29T10:11:03;14.20;80.70
3348;DHT22;1687;49.540;8.574;2022-12-29T10:13:50;14.20;80.50
3348;DHT22;1687;49.540;8.574;2022-12-29T10:16:37;14.30;80.60
3348;DHT22;1687;49.540;8.574;2022-12-29T10:22:46;14.20;80.30
3348;DHT22;1687;49.540;8.574;2022-12-29T10:24:54;14.20;80.40
3348;DHT22;1687;49.540;8.574;2022-12-29T10:27:22;14.20;80.40
3348;DHT22;1687;49.540;8.574;2022-12-29T10:29:59;14.20;80.40
3348;DHT22;1687;49.540;8.574;2022-12-29T10:32:47;14.20;80.30
3348;DHT22;1687;49.540;8.574;2022-12-29T10:35:19;14.30;80.50
3348;DHT22;1687;49.540;8.574;2022-12-29T10:43:29;14.30;80.40
3348;DHT22;1687;49.540;8.574;2022-12-29T10:45:58;14.30;80.40
3348;DHT22;1687;49.540;8.574;2022-12-29T10:48:34;14.30;80.40
3348;DHT22;1687;49.540;8.574;2022-12-29T10:51:02;14.30;80.40
3348;DHT22;1687;49.540;8.574;2022-12-29T10:53:45;14.40;80.60
3348;DHT22;1687;49.540;8.574;2022-12-29T10:56:27;14.50;80.50
3348;DHT22;1687;49.540;8.574;2022-12-29T10:58:56;14.60;80.60
3348;DHT22;1687;49.540;8.574;2022-12-29T11:01:26;14.50;80.30
3348;DHT22;1687;49.540;8.574;2022-12-29T11:04:11;14.50;80.30
3348;DHT22;1687;49.540;8.574;2022-12-29T11:06:48;14.50;80.50
3348;DHT22;1687;49.540;8.574;2022-12-29T11:09:24;14.50;80.10
3348;DHT22;1687;49.540;8.574;2022-12-29T11:11:53;14.60;80.30
3348;DHT22;1687;49.540;8.574;2022-12-29T11:14:28;14.60;80.20
3348;DHT22;1687;49.540;8.574;2022-12-29T11:17:00;14.60;80.00
3348;DHT22;1687;49.540;8.574;2022-12-29T11:19:32;14.50;80.00
3348;DHT22;1687;49.540;8.574;2022-12-29T11:22:29;14.50;79.60
3348;DHT22;1687;49.540;8.574;2022-12-29T11:25:06;14.40;79.60
3348;DHT22;1687;49.540;8.574;2022-12-29T11:27:36;14.30;79.60
3348;DHT22;1687;49.540;8.574;2022-12-29T11:30:01;14.30;79.90
3348;DHT22;1687;49.540;8.574;2022-12-29T11:32:29;14.20;79.80
3348;DHT22;1687;49.540;8.574;2022-12-29T11:34:56;14.30;80.00
3348;DHT22;1687;49.540;8.574;2022-12-29T11:37:37;14.30;79.80
3348;DHT22;1687;49.540;8.574;2022-12-29T11:40:19;14.30;80.00
3348;DHT22;1687;49.540;8.574;2022-12-29T11:42:52;14.40;80.30
3348;DHT22;1687;49.540;8.574;2022-12-29T11:45:27;14.40;79.90
3348;DHT22;1687;49.540;8.574;2022-12-29T11:48:00;14.40;79.80
3348;DHT22;1687;49.540;8.574;2022-12-29T11:50:33;14.40;79.90
3348;DHT22;1687;49.540;8.574;2022-12-29T11:53:03;14.40;80.10
3348;DHT22;1687;49.540;8.574;2022-12-29T11:55:31;14.50;80.30
3348;DHT22;1687;49.540;8.574;2022-12-29T11:57:58;14.60;79.90
3348;DHT22;1687;49.540;8.574;2022-12-29T12:00:27;14.60;79.90
3348;DHT22;1687;49.540;8.574;2022-12-29T12:03:15;14.50;79.70
3348;DHT22;1687;49.540;8.574;2022-12-29T12:05:54;14.50;79.50
3348;DHT22;1687;49.540;8.574;2022-12-29T12:08:37;14.50;79.60
3348;DHT22;1687;49.540;8.574;2022-12-29T12:16:40;14.50;79.30
3348;DHT22;1687;49.540;8.574;2022-12-29T12:19:38;14.50;79.30
3348;DHT22;1687;49.540;8.574;2022-12-29T12:22:13;14.60;79.30
3348;DHT22;1687;49.540;8.574;2022-12-29T12:24:57;14.70;79.40
3348;DHT22;1687;49.540;8.574;2022-12-29T12:27:33;14.70;78.70
3348;DHT22;1687;49.540;8.574;2022-12-29T12:30:14;14.70;79.60
3348;DHT22;1687;49.540;8.574;2022-12-29T12:32:52;14.70;78.70
3348;DHT22;1687;49.540;8.574;2022-12-29T12:38:35;14.60;77.90
3348;DHT22;1687;49.540;8.574;2022-12-29T12:41:36;14.60;77.90
3348;DHT22;1687;49.540;8.574;2022-12-29T12:44:51;14.50;77.50
3348;DHT22;1687;49.540;8.574;2022-12-29T12:47:49;14.40;77.20
3348;DHT22;1687;49.540;8.574;2022-12-29T12:53:14;14.40;77.20
3348;DHT22;1687;49.540;8.574;2022-12-29T12:56:14;14.40;77.00
3348;DHT22;1687;49.540;8.574;2022-12-29T13:02:21;14.20;76.60
3348;DHT22;1687;49.540;8.574;2022-12-29T13:11:32;14.10;77.10
3348;DHT22;1687;49.540;8.574;2022-12-29T13:14:34;14.10;77.20
3348;DHT22;1687;49.540;8.574;2022-12-29T13:17:40;14.20;77.20
3348;DHT22;1687;49.540;8.574;2022-12-29T13:23:16;14.20;77.20
3348;DHT22;1687;49.540;8.574;2022-12-29T13:26:12;14.20;77.40
3348;DHT22;1687;49.540;8.574;2022-12-29T13:28:57;14.10;77.30
3348;DHT22;1687;49.540;8.574;2022-12-29T13:34:11;14.00;77.10
3348;DHT22;1687;49.540;8.574;2022-12-29T13:37:01;14.00;77.40
3348;DHT22;1687;49.540;8.574;2022-12-29T13:39:35;14.00;77.00
3348;DHT22;1687;49.540;8.574;2022-12-29T13:42:04;13.90;77.10
3348;DHT22;1687;49.540;8.574;2022-12-29T13:44:50;13.90;77.00
3348;DHT22;1687;49.540;8.574;2022-12-29T13:47:40;13.80;76.90
3348;DHT22;1687;49.540;8.574;2022-12-29T13:50:18;13.80;76.80
3348;DHT22;1687;49.540;8.574;2022-12-29T13:53:03;13.80;77.00
3348;DHT22;1687;49.540;8.574;2022-12-29T13:55:45;13.80;77.00
3348;DHT22;1687;49.540;8.574;2022-12-29T14:03:52;13.60;76.50
3348;DHT22;1687;49.540;8.574;2022-12-29T14:06:28;13.50;77.20
3348;DHT22;1687;49.540;8.574;2022-12-29T14:09:01;13.40;76.30
3348;DHT22;1687;49.540;8.574;2022-12-29T14:11:36;13.30;76.50
3348;DHT22;1687;49.540;8.574;2022-12-29T14:16:42;13.10;76.50
3348;DHT22;1687;49.540;8.574;2022-12-29T14:19:27;13.10;76.60
3348;DHT22;1687;49.540;8.574;2022-12-29T14:21:59;13.00;76.50
3348;DHT22;1687;49.540;8.574;2022-12-29T14:26:52;12.90;76.60
3348;DHT22;1687;49.540;8.574;2022-12-29T14:31:47;12.80;76.90
3348;DHT22;1687;49.540;8.574;2022-12-29T14:36:57;12.70;77.00
3348;DHT22;1687;49.540;8.574;2022-12-29T14:39:43;12.70;77.10
3348;DHT22;1687;49.540;8.574;2022-12-29T14:47:37;12.60;77.40
3348;DHT22;1687;49.540;8.574;2022-12-29T14:53:01;12.50;77.50
3348;DHT22;1687;49.540;8.574;2022-12-29T14:55:43;12.50;77.70
3348;DHT22;1687;49.540;8.574;2022-12-29T14:58:21;12.40;77.80
3348;DHT22;1687;49.540;8.574;2022-12-29T15:00:55;12.50;78.40
3348;DHT22;1687;49.540;8.574;2022-12-29T15:03:24;12.70;78.70
3348;DHT22;1687;49.540;8.574;2022-12-29T15:06:07;12.70;78.40
3348;DHT22;1687;49.540;8.574;2022-12-29T15:09:03;12.70;78.50
3348;DHT22;1687;49.540;8.574;2022-12-29T15:11:47;12.70;78.50
3348;DHT22;1687;49.540;8.574;2022-12-29T15:14:34;12.70;78.60
3348;DHT22;1687;49.540;8.574;2022-12-29T15:17:09;12.80;78.80
3348;DHT22;1687;49.540;8.574;2022-12-29T15:19:46;12.80;78.90
3348;DHT22;1687;49.540;8.574;2022-12-29T15:22:12;12.80;78.80
3348;DHT22;1687;49.540;8.574;2022-12-29T15:24:42;12.70;78.50
3348;DHT22;1687;49.540;8.574;2022-12-29T15:27:13;12.70;78.60
3348;DHT22;1687;49.540;8.574;2022-12-29T15:29:43;12.60;78.70
3348;DHT22;1687;49.540;8.574;2022-12-29T15:34:50;12.50;78.40
3348;DHT22;1687;49.540;8.574;2022-12-29T15:39:49;12.30;78.60
3348;DHT22;1687;49.540;8.574;2022-12-29T15:45:11;12.00;78.50
3348;DHT22;1687;49.540;8.574;2022-12-29T15:47:40;12.00;78.60
3348;DHT22;1687;49.540;8.574;2022-12-29T15:50:32;11.90;79.00
3348;DHT22;1687;49.540;8.574;2022-12-29T15:53:00;11.90;79.00
3348;DHT22;1687;49.540;8.574;2022-12-29T15:55:34;11.80;78.80
3348;DHT22;1687;49.540;8.574;2022-12-29T15:58:03;11.70;79.00
3348;DHT22;1687;49.540;8.574;2022-12-29T16:00:32;11.70;79.20
3348;DHT22;1687;49.540;8.574;2022-12-29T16:03:01;11.80;79.70
3348;DHT22;1687;49.540;8.574;2022-12-29T16:05:38;11.80;79.70
3348;DHT22;1687;49.540;8.574;2022-12-29T16:08:29;11.80;79.80
3348;DHT22;1687;49.540;8.574;2022-12-29T16:11:00;11.90;80.00
3348;DHT22;1687;49.540;8.574;2022-12-29T16:13:38;11.90;80.20
3348;DHT22;1687;49.540;8.574;2022-12-29T16:16:16;11.90;80.00
3348;DHT22;1687;49.540;8.574;2022-12-29T16:18:44;11.90;80.40
3348;DHT22;1687;49.540;8.574;2022-12-29T16:21:18;11.90;80.50
3348;DHT22;1687;49.540;8.574;2022-12-29T16:23:49;12.00;81.40
3348;DHT22;1687;49.540;8.574;2022-12-29T16:26:18;12.00;80.40
3348;DHT22;1687;49.540;8.574;2022-12-29T16:28:48;12.00;80.70
3348;DHT22;1687;49.540;8.574;2022-12-29T16:31:24;12.00;80.60
3348;DHT22;1687;49.540;8.574;2022-12-29T16:33:58;12.00;81.00
3348;DHT22;1687;49.540;8.574;2022-12-29T16:36:25;12.00;80.90
3348;DHT22;1687;49.540;8.574;2022-12-29T16:39:26;12.00;81.10
3348;DHT22;1687;49.540;8.574;2022-12-29T16:42:32;12.10;81.00
3348;DHT22;1687;49.540;8.574;2022-12-29T16:47:47;12.10;81.50
3348;DHT22;1687;49.540;8.574;2022-12-29T16:50:18;12.20;81.60
3348;DHT22;1687;49.540;8.574;2022-12-29T16:52:48;12.20;81.40
3348;DHT22;1687;49.540;8.574;2022-12-29T16:55:18;12.20;81.60
3348;DHT22;1687;49.540;8.574;2022-12-29T16:57:46;12.30;81.50
3348;DHT22;1687;49.540;8.574;2022-12-29T17:00:20;12.30;81.70
3348;DHT22;1687;49.540;8.574;2022-12-29T17:02:54;12.30;81.60
3348;DHT22;1687;49.540;8.574;2022-12-29T17:05:21;12.40;81.70
3348;DHT22;1687;49.540;8.574;2022-12-29T17:07:48;12.40;81.70
3348;DHT22;1687;49.540;8.574;2022-12-29T17:10:14;12.40;81.50
3348;DHT22;1687;49.540;8.574;2022-12-29T17:12:42;12.40;81.70
3348;DHT22;1687;49.540;8.574;2022-12-29T17:15:21;12.40;81.50
3348;DHT22;1687;49.540;8.574;2022-12-29T17:17:52;12.30;81.30
3348;DHT22;1687;49.540;8.574;2022-12-29T17:20:23;12.20;81.30
3348;DHT22;1687;49.540;8.574;2022-12-29T17:22:51;12.20;81.60
3348;DHT22;1687;49.540;8.574;2022-12-29T17:25:27;12.30;82.00
3348;DHT22;1687;49.540;8.574;2022-12-29T17:27:59;12.30;81.60
3348;DHT22;1687;49.540;8.574;2022-12-29T17:30:27;12.30;81.90
3348;DHT22;1687;49.540;8.574;2022-12-29T17:35:26;12.30;81.90
3348;DHT22;1687;49.540;8.574;2022-12-29T17:37:52;12.40;82.20
3348;DHT22;1687;49.540;8.574;2022-12-29T17:40:21;12.40;82.30
3348;DHT22;1687;49.540;8.574;2022-12-29T17:42:51;12.40;82.40
3348;DHT22;1687;49.540;8.574;2022-12-29T17:45:21;12.20;81.50
3348;DHT22;1687;49.540;8.574;2022-12-29T17:47:48;12.20;82.00
3348;DHT22;1687;49.540;8.574;2022-12-29T17:50:16;12.10;82.00
3348;DHT22;1687;49.540;8.574;2022-12-29T17:52:50;12.00;82.10
3348;DHT22;1687;49.540;8.574;2022-12-29T17:55:19;12.00;82.20
3348;DHT22;1687;49.540;8.574;2022-12-29T17:57:46;12.00;82.30
3348;DHT22;1687;49.540;8.574;2022-12-29T18:00:23;11.90;82.50
3348;DHT22;1687;49.540;8.574;2022-12-29T18:02:54;12.00;82.90
3348;DHT22;1687;49.540;8.574;2022-12-29T18:05:26;11.90;82.80
3348;DHT22;1687;49.540;8.574;2022-12-29T18:07:55;11.90;83.00
3348;DHT22;1687;49.540;8.574;2022-12-29T18:10:23;11.90;82.90
3348;DHT22;1687;49.540;8.574;2022-12-29T18:12:52;11.80;82.90
3348;DHT22;1687;49.540;8.574;2022-12-29T18:15:25;11.80;83.00
3348;DHT22;1687;49.540;8.574;2022-12-29T18:18:09;11.70;83.20
3348;DHT22;1687;49.540;8.574;2022-12-29T18:20:36;11.70;83.40
3348;DHT22;1687;49.540;8.574;2022-12-29T18:23:02;11.60;83.40
3348;DHT22;1687;49.540;8.574;2022-12-29T18:25:45;11.60;83.80